Weather at Portland International Airport

Public forecast

Using degrees Fahrenheit for public forecast. Weather courtesy of forecast.io.

Current aviation weather report (METAR) for Portland International Airport

Retrieved 2021/07/29 08:53 UTC (45 minutes ago):

KPDX 290853Z 00000KT 10SM FEW150 SCT300 23/12 A3003 RMK AO2 SLP167 T02280122 50002

Aviation forecast (TAF) for Portland International Airport

Retrieved 2021/07/29 06:22 UTC (3 hours ago):

TAF KPDX 290520Z 2906/3006 32005KT P6SM SCT100 FM292000 31011KT P6SM SCT200 FM300300 31004KT P6SM SCT100